Nix, Texas
Current Conditions -  °F | °C
As of 2:35 PM on Thursday 20 Nov 2014 (Local Time) from KLZZ Reporting Station
Clear Clear  
Wind Chill: 73°   Ceiling: Unl
Heat Index: 73°   Visibility: 10mi
Dew Point: 56°   Wind: 12mph
Humidity: 54%   Direction: 170°S
Pressure: 29.99"   Gusts: 22mph
Location:  31.1064°N, 98.2303°W
Report Text: KLZZ 202035Z AUTO 17010G19KT 10SM CLR 23/13 A2999 RMK AO2 T02280131
Loading
Personal Weather Stations






























Interactive Weather Map New forecast layout! Learn more

10-Day Weather Forecast

Advertisements
Track Severe Weather on mobile